Time;durP1;ratioP1;P1;durP2;ratioP2;P2;SDS_P1;SDS_P2;PMS_P1;PMS_P2;Temp;Humidity;BMP_temperature;BMP_pressure;BME280_temperature;BME280_humidity;BME280_pressure;Samples;Min_cycle;Max_cycle;Signal;HPM_P1;HPM_P2
2021/10/25 00:00:09;;;;;;;6.10;2.67;;;6.90;99.90;;;;;;5041367;28;20227;-67
2021/10/25 00:02:37;;;;;;;5.57;2.60;;;6.50;99.90;;;;;;5041111;28;20199;-67
2021/10/25 00:05:05;;;;;;;3.97;2.53;;;6.70;99.90;;;;;;5044235;28;20212;-67
2021/10/25 00:07:33;;;;;;;4.83;2.60;;;6.60;99.90;;;;;;5042830;28;20218;-67
2021/10/25 00:10:00;;;;;;;4.33;2.40;;;7.00;99.90;;;;;;5043564;28;20557;-67
2021/10/25 00:12:27;;;;;;;4.43;2.40;;;6.80;99.90;;;;;;5042921;28;20199;-67
2021/10/25 00:14:54;;;;;;;7.73;2.70;;;6.60;99.90;;;;;;5041707;28;20237;-67
2021/10/25 00:17:21;;;;;;;4.63;2.63;;;6.50;99.90;;;;;;5039549;28;20301;-67
2021/10/25 00:19:48;;;;;;;4.57;3.10;;;6.40;99.90;;;;;;5038747;28;20224;-67
2021/10/25 00:22:15;;;;;;;8.37;2.73;;;6.20;99.90;;;;;;5039591;28;20252;-67
2021/10/25 00:24:44;;;;;;;4.93;3.00;;;6.20;99.90;;;;;;5040184;28;20276;-67
2021/10/25 00:27:11;;;;;;;4.43;2.60;;;6.20;99.90;;;;;;5041145;28;20221;-67
2021/10/25 00:29:38;;;;;;;5.33;2.73;;;6.20;99.90;;;;;;5038041;28;20207;-67
2021/10/25 00:32:06;;;;;;;4.43;2.40;;;6.20;99.90;;;;;;5040214;28;20575;-67
2021/10/25 00:34:33;;;;;;;6.17;2.87;;;6.20;99.90;;;;;;5048066;28;20209;-68
2021/10/25 00:37:02;;;;;;;8.87;4.03;;;6.10;99.90;;;;;;5052241;28;20202;-67
2021/10/25 00:39:30;;;;;;;5.53;3.50;;;6.10;99.90;;;;;;5050484;28;20223;-67
2021/10/25 00:41:58;;;;;;;6.87;2.70;;;6.30;99.90;;;;;;5049467;28;20203;-67
2021/10/25 00:44:26;;;;;;;5.10;2.70;;;6.20;99.90;;;;;;5051918;28;20199;-67
2021/10/25 00:46:53;;;;;;;6.63;3.03;;;6.20;99.90;;;;;;5049946;28;20754;-67
2021/10/25 00:49:20;;;;;;;6.13;2.60;;;6.30;99.90;;;;;;5051104;28;20202;-67
2021/10/25 00:51:47;;;;;;;5.47;2.80;;;6.30;99.90;;;;;;5047362;28;20225;-67
2021/10/25 00:54:14;;;;;;;2.93;2.30;;;6.40;99.90;;;;;;5042721;28;20661;-67
2021/10/25 00:56:43;;;;;;;4.13;2.80;;;6.50;99.90;;;;;;5038212;28;20196;-67
2021/10/25 00:59:12;;;;;;;4.90;2.90;;;6.30;99.90;;;;;;5051853;28;20207;-67
2021/10/25 01:01:39;;;;;;;4.07;2.60;;;5.80;99.90;;;;;;5050504;28;20656;-67
2021/10/25 01:04:09;;;;;;;5.87;2.80;;;5.50;99.90;;;;;;5051170;28;20245;-67
2021/10/25 01:06:36;;;;;;;4.70;2.83;;;5.40;99.90;;;;;;5051521;28;20203;-67
2021/10/25 01:09:04;;;;;;;3.30;2.70;;;5.50;99.90;;;;;;5051344;28;20199;-67
2021/10/25 01:11:31;;;;;;;6.40;3.17;;;5.30;99.90;;;;;;5051741;28;20369;-67
2021/10/25 01:13:59;;;;;;;7.00;2.67;;;5.40;99.90;;;;;;5052094;28;20248;-67
2021/10/25 01:16:28;;;;;;;4.83;2.73;;;5.40;99.90;;;;;;5050874;28;20568;-67
2021/10/25 01:18:55;;;;;;;6.17;3.07;;;5.40;99.90;;;;;;5051203;28;20203;-67
2021/10/25 01:21:24;;;;;;;4.63;3.40;;;5.40;99.90;;;;;;5049855;28;20229;-67
2021/10/25 01:23:52;;;;;;;11.60;7.37;;;5.30;99.90;;;;;;5046885;28;20665;-67
2021/10/25 01:26:21;;;;;;;9.40;4.17;;;5.30;99.90;;;;;;5050067;28;20214;-67
2021/10/25 01:28:48;;;;;;;6.83;3.73;;;5.00;99.90;;;;;;5050001;28;20234;-67
2021/10/25 01:31:15;;;;;;;5.57;3.67;;;4.70;99.90;;;;;;5051154;28;20206;-67
2021/10/25 01:33:44;;;;;;;5.97;3.80;;;4.70;99.90;;;;;;5049842;28;20677;-67
2021/10/25 01:36:11;;;;;;;6.43;4.40;;;4.60;99.90;;;;;;5049637;28;20199;-67
2021/10/25 01:38:40;;;;;;;9.23;4.40;;;4.40;99.90;;;;;;5051557;28;20214;-67
2021/10/25 01:41:07;;;;;;;7.10;4.00;;;4.40;99.90;;;;;;5050367;28;20223;-67
2021/10/25 01:43:34;;;;;;;8.77;3.77;;;4.60;99.90;;;;;;5046591;28;20200;-67
2021/10/25 01:46:01;;;;;;;6.67;3.90;;;4.70;99.90;;;;;;5042716;28;20286;-67
2021/10/25 01:48:28;;;;;;;7.63;3.50;;;4.80;99.90;;;;;;5048996;28;20217;-67
2021/10/25 01:50:55;;;;;;;7.27;3.90;;;4.70;99.90;;;;;;5048564;28;20669;-67
2021/10/25 01:53:22;;;;;;;4.10;3.13;;;4.80;99.90;;;;;;5044798;28;20207;-67
2021/10/25 01:55:58;;;;;;;5.70;3.20;;;4.70;99.90;;;;;;5046034;28;20199;-67
2021/10/25 01:58:26;;;;;;;5.47;3.03;;;4.60;99.90;;;;;;5045035;28;20207;-67
2021/10/25 02:00:52;;;;;;;5.03;2.90;;;4.50;99.90;;;;;;5048206;28;20586;-67
2021/10/25 02:03:20;;;;;;;6.30;3.17;;;4.60;99.90;;;;;;5049636;28;20214;-67
2021/10/25 02:05:47;;;;;;;5.67;2.93;;;4.60;99.90;;;;;;5039845;28;20207;-67
2021/10/25 02:08:14;;;;;;;5.83;3.03;;;4.50;99.90;;;;;;5048043;28;20680;-67
2021/10/25 02:10:40;;;;;;;6.33;3.03;;;4.30;99.90;;;;;;5050386;28;20628;-67
2021/10/25 02:13:15;;;;;;;6.10;3.07;;;4.30;99.90;;;;;;5047683;28;20640;-67
2021/10/25 02:15:42;;;;;;;4.73;2.80;;;3.80;99.90;;;;;;5046533;28;20692;-67
2021/10/25 02:18:09;;;;;;;5.60;3.23;;;3.50;99.90;;;;;;5048191;28;20203;-67
2021/10/25 02:20:36;;;;;;;4.33;3.00;;;3.50;99.90;;;;;;5047799;28;20226;-67
2021/10/25 02:23:03;;;;;;;4.50;2.93;;;3.60;99.90;;;;;;5046105;28;20207;-67
2021/10/25 02:25:30;;;;;;;4.97;3.20;;;3.70;99.90;;;;;;5041282;28;20203;-67
2021/10/25 02:27:57;;;;;;;4.53;3.00;;;3.90;99.90;;;;;;5044778;28;20199;-67
2021/10/25 02:30:27;;;;;;;5.43;3.30;;;4.00;99.90;;;;;;5049461;28;20215;-67
2021/10/25 02:32:53;;;;;;;6.87;3.40;;;4.10;99.90;;;;;;5044062;28;20665;-67
2021/10/25 02:35:20;;;;;;;4.23;3.30;;;4.10;99.90;;;;;;5041471;28;20688;-67
2021/10/25 02:37:47;;;;;;;8.60;3.30;;;4.20;99.90;;;;;;5047652;28;20206;-67
2021/10/25 02:40:15;;;;;;;4.77;3.00;;;4.20;99.90;;;;;;5038293;28;20230;-67
2021/10/25 02:42:42;;;;;;;6.17;2.70;;;4.10;99.90;;;;;;5048366;28;20656;-67
2021/10/25 02:45:10;;;;;;;5.83;2.80;;;4.20;99.90;;;;;;5048478;28;20206;-67
2021/10/25 02:47:38;;;;;;;5.90;2.87;;;4.30;99.90;;;;;;5042639;28;20206;-67
2021/10/25 02:50:06;;;;;;;5.10;3.03;;;4.20;99.90;;;;;;5047283;28;20286;-67
2021/10/25 02:52:33;;;;;;;4.93;2.90;;;4.20;99.90;;;;;;5048924;28;20209;-66
2021/10/25 02:54:59;;;;;;;7.80;3.60;;;4.30;99.90;;;;;;5046241;28;20201;-67
2021/10/25 02:57:26;;;;;;;4.43;3.13;;;4.30;99.90;;;;;;5048899;28;20213;-66
2021/10/25 02:59:53;;;;;;;5.97;3.33;;;4.30;99.90;;;;;;5046776;28;20663;-66
2021/10/25 03:02:20;;;;;;;7.33;3.17;;;4.20;99.90;;;;;;5042678;28;20199;-68
2021/10/25 03:04:49;;;;;;;6.07;3.10;;;4.30;99.90;;;;;;5048893;28;20467;-67
2021/10/25 03:07:16;;;;;;;3.83;3.13;;;4.40;99.90;;;;;;5045841;28;20207;-67
2021/10/25 03:09:43;;;;;;;5.03;2.83;;;4.50;99.90;;;;;;5044962;28;20211;-67
2021/10/25 03:12:09;;;;;;;6.30;3.93;;;4.50;99.90;;;;;;5046244;28;20661;-67
2021/10/25 03:14:36;;;;;;;6.03;3.30;;;4.40;99.90;;;;;;5040000;28;20210;-67
2021/10/25 03:17:03;;;;;;;7.47;4.30;;;4.30;99.90;;;;;;5041994;28;20203;-67
2021/10/25 03:19:30;;;;;;;19.30;11.43;;;4.30;99.90;;;;;;5049642;28;20211;-67
2021/10/25 03:21:58;;;;;;;9.73;4.70;;;4.20;99.90;;;;;;5053128;28;20222;-66
2021/10/25 03:24:25;;;;;;;6.77;3.60;;;4.20;99.90;;;;;;5052011;28;20303;-67
2021/10/25 03:26:52;;;;;;;7.37;3.53;;;4.20;99.90;;;;;;5053143;28;20194;-67
2021/10/25 03:29:19;;;;;;;8.83;3.97;;;4.10;99.90;;;;;;5052415;28;20206;-66
2021/10/25 03:31:46;;;;;;;6.90;4.10;;;4.10;99.90;;;;;;5047837;28;20199;-66
2021/10/25 03:34:13;;;;;;;8.03;4.80;;;4.20;99.90;;;;;;5046477;28;20223;-66
2021/10/25 03:36:43;;;;;;;5.23;3.77;;;4.20;99.90;;;;;;5048187;28;20207;-67
2021/10/25 03:39:11;;;;;;;4.87;3.77;;;4.20;99.90;;;;;;5052165;28;20210;-67
2021/10/25 03:41:41;;;;;;;6.20;3.87;;;4.10;99.90;;;;;;5053817;28;20219;-67
2021/10/25 03:44:11;;;;;;;5.90;3.40;;;4.10;99.90;;;;;;5046663;28;20215;-66
2021/10/25 03:46:41;;;;;;;5.50;3.50;;;4.00;99.90;;;;;;5048796;28;20195;-67
2021/10/25 03:49:13;;;;;;;6.80;3.60;;;3.60;99.90;;;;;;5048557;28;20202;-66
2021/10/25 03:51:42;;;;;;;6.57;3.33;;;3.70;99.90;;;;;;5048493;28;20535;-66
2021/10/25 03:54:23;;;;;;;5.97;3.53;;;3.80;99.90;;;;;;5051153;28;20429;-67
2021/10/25 03:57:10;;;;;;;5.67;3.40;;;3.80;99.90;;;;;;5048828;28;20649;-67
2021/10/25 04:13:47;;;;;;;5.47;3.20;;;3.90;99.90;;;;;;5053128;28;20722;-66
2021/10/25 04:27:29;;;;;;;33.30;19.77;;;4.10;99.90;;;;;;5053072;28;20278;-66
2021/10/25 04:30:02;;;;;;;24.10;13.03;;;4.10;99.90;;;;;;5048813;28;20207;-66
2021/10/25 04:32:29;;;;;;;15.63;12.37;;;4.10;99.90;;;;;;5044392;28;20217;-66
2021/10/25 04:34:56;;;;;;;5.77;4.23;;;4.20;99.90;;;;;;5042460;28;20207;-67
2021/10/25 04:37:23;;;;;;;5.90;3.63;;;4.20;99.90;;;;;;5045706;28;20316;-66
2021/10/25 04:39:50;;;;;;;7.27;3.63;;;4.20;99.90;;;;;;5045771;28;20203;-67
2021/10/25 04:42:17;;;;;;;5.47;3.33;;;4.30;99.90;;;;;;5052938;28;20749;-66
2021/10/25 04:44:44;;;;;;;6.67;3.70;;;4.30;99.90;;;;;;5053039;28;20290;-67
2021/10/25 04:47:12;;;;;;;4.17;3.40;;;4.20;99.90;;;;;;5050560;28;20205;-66
2021/10/25 04:49:39;;;;;;;7.30;4.00;;;4.00;99.90;;;;;;5051530;28;20206;-66
2021/10/25 04:52:07;;;;;;;3.93;3.50;;;4.00;99.90;;;;;;5052308;28;20206;-66
2021/10/25 04:54:34;;;;;;;7.37;3.77;;;3.90;99.90;;;;;;5051658;28;20584;-66
2021/10/25 04:57:01;;;;;;;5.73;3.30;;;3.90;99.90;;;;;;5051691;28;20277;-67
2021/10/25 04:59:28;;;;;;;5.37;3.60;;;4.00;99.90;;;;;;5052175;28;20209;-68
2021/10/25 05:01:55;;;;;;;7.37;3.87;;;4.10;99.90;;;;;;5045863;28;20230;-67
2021/10/25 05:04:24;;;;;;;6.67;3.83;;;4.10;99.90;;;;;;5043955;28;20222;-68
2021/10/25 05:06:51;;;;;;;6.10;3.57;;;4.00;99.90;;;;;;5043797;28;20211;-67
2021/10/25 05:09:18;;;;;;;4.93;3.30;;;4.00;99.90;;;;;;5043985;28;20203;-67
2021/10/25 05:11:45;;;;;;;4.83;3.53;;;3.90;99.90;;;;;;5044115;28;20192;-68
2021/10/25 05:14:12;;;;;;;8.00;4.00;;;3.90;99.90;;;;;;5051876;28;20199;-68
2021/10/25 05:16:39;;;;;;;6.50;3.37;;;3.70;99.90;;;;;;5042624;28;20207;-67
2021/10/25 05:19:06;;;;;;;6.07;3.67;;;3.80;99.90;;;;;;5043259;28;20241;-68
2021/10/25 05:21:35;;;;;;;7.20;3.90;;;3.70;99.90;;;;;;5042073;28;20222;-67
2021/10/25 05:24:02;;;;;;;7.80;4.37;;;3.60;99.90;;;;;;5041427;28;20325;-67
2021/10/25 05:26:29;;;;;;;8.07;3.80;;;3.50;99.90;;;;;;5043863;28;20570;-67
2021/10/25 05:28:56;;;;;;;8.13;3.83;;;3.20;99.90;;;;;;5040252;28;20203;-67
2021/10/25 05:31:23;;;;;;;6.73;3.60;;;2.80;99.90;;;;;;5048913;28;20665;-67
2021/10/25 05:33:51;;;;;;;10.53;4.10;;;2.60;99.90;;;;;;5048744;28;20677;-67
2021/10/25 05:36:18;;;;;;;6.33;3.70;;;2.40;99.90;;;;;;5052061;28;20562;-67
2021/10/25 05:38:46;;;;;;;4.83;3.70;;;2.40;99.90;;;;;;5049147;28;20629;-67
2021/10/25 05:41:13;;;;;;;4.67;3.40;;;2.50;99.90;;;;;;5049545;28;20215;-69
2021/10/25 05:43:40;;;;;;;7.50;4.10;;;2.50;99.90;;;;;;5042556;28;20199;-67
2021/10/25 05:46:07;;;;;;;7.93;4.17;;;2.40;99.90;;;;;;5045182;28;20265;-68
2021/10/25 05:48:34;;;;;;;6.70;3.73;;;2.60;99.90;;;;;;5047655;28;20199;-67
2021/10/25 05:51:01;;;;;;;7.57;4.33;;;2.70;99.90;;;;;;5051394;28;20625;-67
2021/10/25 05:53:28;;;;;;;9.00;4.47;;;2.90;99.90;;;;;;5050738;28;20211;-68
2021/10/25 05:55:58;;;;;;;13.93;4.67;;;3.00;99.90;;;;;;5050664;28;20199;-68
2021/10/25 05:58:25;;;;;;;10.17;5.20;;;3.10;99.90;;;;;;5049099;28;20209;-68
2021/10/25 06:00:54;;;;;;;12.27;5.67;;;3.10;99.90;;;;;;5047705;28;20735;-68
2021/10/25 06:03:23;;;;;;;6.53;4.57;;;3.20;99.90;;;;;;5041881;28;20208;-68
2021/10/25 06:05:50;;;;;;;8.57;4.63;;;3.20;99.90;;;;;;5041694;28;20206;-68
2021/10/25 06:08:18;;;;;;;9.77;4.97;;;3.20;99.90;;;;;;5042291;28;20210;-68
2021/10/25 06:10:45;;;;;;;8.87;4.67;;;3.20;99.90;;;;;;5038551;28;20200;-67
2021/10/25 06:13:20;;;;;;;8.67;4.73;;;3.10;99.90;;;;;;5043931;28;20198;-68
2021/10/25 06:15:56;;;;;;;13.20;4.97;;;3.20;99.90;;;;;;5046446;28;20206;-67
2021/10/25 06:18:24;;;;;;;10.20;4.73;;;3.30;99.90;;;;;;5044684;28;20264;-67
2021/10/25 06:20:51;;;;;;;9.13;5.07;;;3.30;99.90;;;;;;5050702;28;20214;-68
2021/10/25 06:23:18;;;;;;;10.27;4.80;;;3.30;99.90;;;;;;5051307;28;20199;-68
2021/10/25 06:25:50;;;;;;;10.67;4.80;;;3.20;99.90;;;;;;5051955;28;20575;-67
2021/10/25 06:28:19;;;;;;;13.13;4.90;;;3.20;99.90;;;;;;5051272;28;20449;-67
2021/10/25 06:30:54;;;;;;;10.07;4.50;;;3.20;99.90;;;;;;5050712;28;20366;-67
2021/10/25 06:33:21;;;;;;;7.53;4.70;;;3.20;99.90;;;;;;5050496;28;20221;-67
2021/10/25 06:35:57;;;;;;;11.10;5.63;;;3.30;99.90;;;;;;5044204;28;20222;-67
2021/10/25 06:38:25;;;;;;;11.13;4.97;;;3.40;99.90;;;;;;5051837;28;20202;-67
2021/10/25 06:40:52;;;;;;;11.83;5.17;;;3.40;99.90;;;;;;5050573;28;20210;-67
2021/10/25 06:43:20;;;;;;;10.00;5.43;;;3.50;99.90;;;;;;5051625;28;20221;-67
2021/10/25 06:45:48;;;;;;;13.97;6.27;;;3.60;99.90;;;;;;5051046;28;20214;-67
2021/10/25 06:48:15;;;;;;;9.60;5.00;;;3.30;99.90;;;;;;5052019;28;20290;-67
2021/10/25 06:50:41;;;;;;;7.93;4.80;;;3.20;99.90;;;;;;5051185;28;20565;-67
2021/10/25 06:53:09;;;;;;;9.47;4.93;;;3.10;99.90;;;;;;5051389;28;20205;-67
2021/10/25 06:55:37;;;;;;;8.80;4.90;;;3.20;99.90;;;;;;5054773;28;20202;-67
2021/10/25 06:58:04;;;;;;;10.10;4.93;;;3.40;99.90;;;;;;5055277;28;20632;-67
2021/10/25 07:00:32;;;;;;;10.07;4.90;;;3.50;99.90;;;;;;5053923;28;20207;-67
2021/10/25 07:02:59;;;;;;;9.63;5.00;;;3.70;99.90;;;;;;5054221;28;20606;-67
2021/10/25 07:05:29;;;;;;;9.27;5.10;;;3.80;99.90;;;;;;5054831;28;20604;-67
2021/10/25 07:07:56;;;;;;;6.80;4.73;;;3.90;99.90;;;;;;5055035;28;20199;-67
2021/10/25 07:10:23;;;;;;;9.90;5.17;;;3.90;99.90;;;;;;5054305;28;20209;-67
2021/10/25 07:12:51;;;;;;;8.73;4.90;;;4.00;99.90;;;;;;5055191;28;20286;-68
2021/10/25 07:15:18;;;;;;;9.63;4.77;;;4.10;99.90;;;;;;5055108;28;20210;-68
2021/10/25 07:17:52;;;;;;;10.27;5.10;;;4.10;99.90;;;;;;5054252;28;20210;-68
2021/10/25 07:20:33;;;;;;;8.20;4.80;;;4.20;99.90;;;;;;5054421;28;20203;-68
2021/10/25 08:04:51;;;;;;;7.63;5.03;;;5.80;99.90;;;;;;5136045;27;21067;-68
2021/10/25 08:07:26;;;;;;;9.47;5.70;;;5.80;99.90;;;;;;5138386;27;20668;-68
2021/10/25 08:09:54;;;;;;;11.43;6.33;;;6.00;99.90;;;;;;5131243;27;20256;-68
2021/10/25 08:12:24;;;;;;;18.43;10.33;;;6.10;99.90;;;;;;5134757;27;20195;-67
2021/10/25 08:14:56;;;;;;;23.30;13.47;;;6.50;99.90;;;;;;5132332;27;20197;-67
2021/10/25 08:17:26;;;;;;;20.07;12.33;;;6.50;99.90;;;;;;5129827;27;20204;-68
2021/10/25 08:19:54;;;;;;;18.00;10.67;;;6.90;99.90;;;;;;5134029;27;20200;-68
2021/10/25 08:22:21;;;;;;;8.97;6.23;;;8.20;99.90;;;;;;5130327;27;20622;-68
2021/10/25 08:24:50;;;;;;;9.40;5.33;;;8.70;99.90;;;;;;5130034;28;20759;-68
2021/10/25 08:27:18;;;;;;;7.83;5.30;;;8.90;99.90;;;;;;5133102;27;20673;-67
2021/10/25 08:29:47;;;;;;;9.60;5.07;;;8.30;99.90;;;;;;5124563;27;20204;-67
2021/10/25 08:32:28;;;;;;;10.43;5.10;;;7.90;99.90;;;;;;5123459;27;20669;-67
2021/10/25 08:35:05;;;;;;;7.73;5.13;;;7.90;99.90;;;;;;5131753;27;20257;-67
2021/10/25 08:40:16;;;;;;;11.77;6.70;;;7.90;99.90;;;;;;5128782;28;20203;-67
2021/10/25 08:42:43;;;;;;;15.60;5.97;;;8.10;99.90;;;;;;5128035;28;20216;-67
2021/10/25 08:45:15;;;;;;;8.53;5.27;;;8.20;99.90;;;;;;5128197;28;20781;-67
2021/10/25 08:47:44;;;;;;;8.10;4.90;;;8.40;99.90;;;;;;5130954;27;20654;-67
2021/10/25 08:50:14;;;;;;;8.20;4.73;;;8.60;99.90;;;;;;5137237;27;20653;-67
2021/10/25 08:52:43;;;;;;;7.47;4.23;;;8.80;99.90;;;;;;5130945;27;20207;-67
2021/10/25 08:55:12;;;;;;;9.57;4.93;;;9.00;99.90;;;;;;5136326;27;20195;-67
2021/10/25 08:57:40;;;;;;;7.17;4.90;;;9.20;99.90;;;;;;5134452;27;20203;-67
2021/10/25 09:00:10;;;;;;;6.97;4.33;;;9.40;99.90;;;;;;5127999;28;20196;-67
2021/10/25 09:02:37;;;;;;;8.53;4.60;;;9.60;99.90;;;;;;5131089;27;20213;-67
2021/10/25 09:05:07;;;;;;;6.07;4.10;;;9.80;99.90;;;;;;5121931;27;20197;-67
2021/10/25 09:07:49;;;;;;;6.50;4.20;;;9.90;99.90;;;;;;5122591;27;20243;-67
2021/10/25 09:10:23;;;;;;;8.63;4.60;;;10.10;99.90;;;;;;5127244;28;20219;-67
2021/10/25 09:12:56;;;;;;;9.77;4.87;;;10.20;99.90;;;;;;5128566;27;20197;-67
2021/10/25 09:15:26;;;;;;;7.30;4.00;;;10.40;99.90;;;;;;5117742;27;20204;-67
2021/10/25 09:17:53;;;;;;;5.67;3.80;;;10.60;99.90;;;;;;5115359;28;20201;-67
2021/10/25 09:20:20;;;;;;;6.07;3.70;;;10.60;99.90;;;;;;5099899;28;20205;-67
2021/10/25 09:22:48;;;;;;;7.13;4.30;;;10.70;99.90;;;;;;5115508;28;20750;-67
2021/10/25 09:25:15;;;;;;;4.33;3.90;;;10.70;99.90;;;;;;5113727;28;20211;-67
2021/10/25 09:27:47;;;;;;;7.73;4.00;;;10.80;99.90;;;;;;5123487;27;20292;-67
2021/10/25 09:30:16;;;;;;;6.13;3.93;;;10.90;99.90;;;;;;5115942;27;20239;-67
2021/10/25 09:32:45;;;;;;;5.00;3.43;;;10.90;99.90;;;;;;5126327;27;20204;-67
2021/10/25 09:35:22;;;;;;;5.90;4.07;;;11.00;99.90;;;;;;5123314;27;20291;-67
2021/10/25 09:37:58;;;;;;;7.03;4.00;;;11.10;99.90;;;;;;5114763;28;20196;-67
2021/10/25 09:40:29;;;;;;;7.20;3.70;;;11.10;99.90;;;;;;5123930;27;20200;-67
2021/10/25 09:46:11;;;;;;;6.60;4.17;;;11.40;99.90;;;;;;5109311;28;20208;-67
2021/10/25 09:49:04;;;;;;;5.43;3.90;;;11.60;99.90;;;;;;5115885;27;20647;-67
2021/10/25 09:51:31;;;;;;;7.00;3.97;;;11.70;99.90;;;;;;5112996;28;20204;-67
2021/10/25 09:54:00;;;;;;;7.20;4.10;;;12.00;99.90;;;;;;5114291;28;20201;-67
2021/10/25 09:56:30;;;;;;;6.43;4.23;;;12.00;99.90;;;;;;5100148;27;20228;-67
2021/10/25 09:59:09;;;;;;;5.73;3.43;;;12.20;99.90;;;;;;5114118;28;20201;-67
2021/10/25 10:01:37;;;;;;;7.37;4.00;;;11.90;99.90;;;;;;5113896;28;20249;-67
2021/10/25 10:04:05;;;;;;;5.83;3.63;;;11.90;99.90;;;;;;5112849;28;20274;-67
2021/10/25 10:06:33;;;;;;;6.70;3.77;;;11.90;99.90;;;;;;5120249;27;20211;-67
2021/10/25 10:09:01;;;;;;;7.03;4.00;;;11.90;99.90;;;;;;5113525;28;20205;-67
2021/10/25 10:11:29;;;;;;;6.60;3.80;;;12.20;99.90;;;;;;5120912;27;20579;-67
2021/10/25 10:13:56;;;;;;;5.53;3.80;;;12.30;99.90;;;;;;5127143;27;20193;-67
2021/10/25 10:16:24;;;;;;;7.87;4.10;;;12.20;99.90;;;;;;5112779;28;20615;-67
2021/10/25 10:18:55;;;;;;;6.17;4.10;;;12.50;99.90;;;;;;5124128;27;20645;-67
2021/10/25 10:21:23;;;;;;;5.50;3.87;;;12.60;99.90;;;;;;5114086;28;20297;-67
2021/10/25 10:23:53;;;;;;;6.50;3.70;;;13.00;99.90;;;;;;5112698;28;20217;-67
2021/10/25 10:26:22;;;;;;;6.57;3.80;;;13.10;99.90;;;;;;5112633;27;20258;-67
2021/10/25 10:28:50;;;;;;;4.50;3.90;;;12.80;99.90;;;;;;5122723;27;20321;-67
2021/10/25 10:31:20;;;;;;;8.43;3.60;;;12.80;99.90;;;;;;5113544;28;20253;-67
2021/10/25 10:33:50;;;;;;;6.77;3.57;;;13.10;99.90;;;;;;5122956;27;20690;-67
2021/10/25 10:36:21;;;;;;;5.33;3.60;;;13.30;99.90;;;;;;5122117;27;20209;-67
2021/10/25 10:38:50;;;;;;;5.70;3.53;;;13.70;99.90;;;;;;5112038;28;20213;-67
2021/10/25 10:41:20;;;;;;;5.73;3.43;;;13.90;99.90;;;;;;5121983;27;20205;-67
2021/10/25 10:44:05;;;;;;;5.57;3.57;;;14.20;99.90;;;;;;5114457;27;20225;-67
2021/10/25 10:46:45;;;;;;;4.60;3.40;;;14.10;99.90;;;;;;5111151;28;20228;-67
2021/10/25 10:49:23;;;;;;;7.10;3.73;;;14.10;99.90;;;;;;5112199;28;20205;-67
2021/10/25 10:52:25;;;;;;;5.53;3.53;;;14.40;99.90;;;;;;5113468;28;20232;-67
2021/10/25 10:55:03;;;;;;;6.70;3.20;;;14.70;99.90;;;;;;5112424;27;20288;-67
2021/10/25 10:58:11;;;;;;;5.87;3.57;;;14.80;99.90;;;;;;5113381;28;20232;-67
2021/10/25 11:00:44;;;;;;;5.17;3.20;;;14.80;99.90;;;;;;5099785;28;20204;-67
2021/10/25 11:03:21;;;;;;;4.50;3.10;;;14.90;99.90;;;;;;5122476;27;20566;-67
2021/10/25 11:05:55;;;;;;;6.53;3.83;;;14.70;99.90;;;;;;5117422;27;20211;-67
2021/10/25 11:08:24;;;;;;;5.73;3.57;;;15.00;99.90;;;;;;5126212;27;20196;-67
2021/10/25 11:10:59;;;;;;;4.73;3.23;;;15.00;99.90;;;;;;5113214;27;20235;-67
2021/10/25 11:13:27;;;;;;;4.80;3.60;;;15.40;99.90;;;;;;5117507;27;20193;-67
2021/10/25 11:16:01;;;;;;;5.47;3.30;;;15.40;99.90;;;;;;5111756;28;20301;-67
2021/10/25 11:18:30;;;;;;;4.63;3.30;;;15.50;99.80;;;;;;5125537;27;20200;-67
2021/10/25 11:21:13;;;;;;;4.80;2.90;;;15.90;99.40;;;;;;5119654;27;20368;-67
2021/10/25 11:23:43;;;;;;;3.83;3.20;;;15.70;99.20;;;;;;5112382;28;20307;-67
2021/10/25 11:26:12;;;;;;;5.13;3.10;;;15.60;98.70;;;;;;5112352;28;20205;-67
2021/10/25 11:28:39;;;;;;;5.70;3.07;;;15.40;98.80;;;;;;5112266;28;20201;-67
2021/10/25 11:31:07;;;;;;;6.97;2.77;;;16.00;99.20;;;;;;5110723;27;20197;-67
2021/10/25 11:33:36;;;;;;;5.10;2.77;;;15.90;99.10;;;;;;5106822;28;20201;-67
2021/10/25 11:36:03;;;;;;;4.40;2.90;;;15.30;99.20;;;;;;5119492;27;20246;-67
2021/10/25 11:38:32;;;;;;;4.37;2.90;;;15.60;99.90;;;;;;5112281;28;20259;-67
2021/10/25 11:41:04;;;;;;;4.00;3.33;;;15.50;99.90;;;;;;5119755;27;20197;-67
2021/10/25 11:43:31;;;;;;;5.97;3.23;;;15.50;99.40;;;;;;5115435;28;20278;-67
2021/10/25 11:45:58;;;;;;;9.93;3.37;;;15.50;99.70;;;;;;5112346;28;20427;-67
2021/10/25 11:48:30;;;;;;;5.83;2.70;;;15.80;99.90;;;;;;5115811;27;20617;-67
2021/10/25 11:51:01;;;;;;;5.37;3.33;;;15.70;99.30;;;;;;5112619;28;20209;-67
2021/10/25 11:53:30;;;;;;;7.73;3.40;;;15.90;98.70;;;;;;5112642;28;20673;-67
2021/10/25 11:55:57;;;;;;;5.50;3.10;;;15.80;98.80;;;;;;5111814;28;20250;-67
2021/10/25 11:58:27;;;;;;;4.30;2.87;;;15.50;98.30;;;;;;5121788;27;20379;-67
2021/10/25 12:01:02;;;;;;;3.73;2.90;;;15.20;98.70;;;;;;5110702;28;20197;-67
2021/10/25 12:03:30;;;;;;;3.73;3.00;;;15.00;98.60;;;;;;5118361;28;20230;-68
2021/10/25 12:05:58;;;;;;;3.87;2.90;;;14.90;98.90;;;;;;5112188;28;20205;-67
2021/10/25 12:08:25;;;;;;;5.07;3.07;;;15.00;99.20;;;;;;5098242;28;20201;-67
2021/10/25 12:10:53;;;;;;;5.73;3.10;;;15.10;99.70;;;;;;5103596;28;20201;-67
2021/10/25 12:13:20;;;;;;;7.33;3.20;;;15.50;99.20;;;;;;5122824;28;20209;-67
2021/10/25 12:15:53;;;;;;;5.20;3.00;;;15.60;98.80;;;;;;5112711;28;20295;-67
2021/10/25 12:18:21;;;;;;;4.90;3.30;;;15.70;98.20;;;;;;5110701;28;20215;-67
2021/10/25 12:20:49;;;;;;;4.87;3.13;;;15.50;98.50;;;;;;5116979;28;20592;-67
2021/10/25 12:23:18;;;;;;;3.73;3.03;;;15.50;99.00;;;;;;5111763;28;20197;-67
2021/10/25 12:25:54;;;;;;;6.23;3.03;;;15.50;98.40;;;;;;5104270;28;20225;-67
2021/10/25 12:28:23;;;;;;;3.40;3.10;;;16.70;97.40;;;;;;5111754;28;20203;-67
2021/10/25 12:31:04;;;;;;;5.30;3.30;;;18.00;97.70;;;;;;5112867;28;20197;-67
2021/10/25 12:33:31;;;;;;;4.97;3.00;;;17.50;96.40;;;;;;5106926;28;20313;-67
2021/10/25 12:36:11;;;;;;;5.50;3.30;;;17.80;93.40;;;;;;5105185;28;20552;-67
2021/10/25 12:38:40;;;;;;;4.40;3.10;;;16.70;93.80;;;;;;5111225;28;20222;-67
2021/10/25 12:41:07;;;;;;;3.50;2.80;;;15.80;94.90;;;;;;5117458;28;20204;-67
2021/10/25 12:43:40;;;;;;;4.00;2.90;;;16.60;94.80;;;;;;5111509;28;20233;-67
2021/10/25 12:46:10;;;;;;;6.03;2.83;;;17.90;92.30;;;;;;5110767;28;20284;-67
2021/10/25 12:48:44;;;;;;;4.87;2.73;;;17.60;91.60;;;;;;5114408;28;20201;-67
2021/10/25 12:51:13;;;;;;;3.47;2.70;;;17.70;90.50;;;;;;5118915;27;20200;-67
2021/10/25 12:53:44;;;;;;;4.13;2.87;;;16.20;92.40;;;;;;5116322;28;20205;-67
2021/10/25 12:56:11;;;;;;;5.80;2.80;;;15.80;94.60;;;;;;5120014;27;20201;-67
2021/10/25 12:58:38;;;;;;;6.07;3.10;;;15.30;95.10;;;;;;5120502;27;20258;-67
2021/10/25 13:01:15;;;;;;;4.13;2.90;;;17.40;93.70;;;;;;5115613;28;20205;-67
2021/10/25 13:03:48;;;;;;;4.73;3.00;;;17.70;91.60;;;;;;5116078;27;20216;-67
2021/10/25 13:06:17;;;;;;;4.67;3.00;;;18.40;91.50;;;;;;5129760;27;20706;-67
2021/10/25 13:08:44;;;;;;;5.80;3.30;;;18.80;88.00;;;;;;5115546;28;20197;-67
2021/10/25 13:11:13;;;;;;;4.60;3.00;;;18.10;87.00;;;;;;5115543;27;20201;-67
2021/10/25 13:13:44;;;;;;;7.57;3.10;;;16.90;90.10;;;;;;5124714;27;20208;-67
2021/10/25 13:16:16;;;;;;;5.45;3.97;;;16.60;91.00;;;;;;5115173;28;20837;-67
2021/10/25 13:18:43;;;;;;;6.07;3.57;;;16.10;91.50;;;;;;5104403;27;20204;-67
2021/10/25 13:21:10;;;;;;;5.30;3.77;;;15.90;91.80;;;;;;5115424;28;20292;-67
2021/10/25 13:23:39;;;;;;;4.93;3.67;;;15.50;93.90;;;;;;5120026;27;20208;-67
2021/10/25 13:26:06;;;;;;;5.23;3.50;;;15.30;93.70;;;;;;5115033;28;20578;-67
2021/10/25 13:28:33;;;;;;;4.93;3.40;;;15.40;94.40;;;;;;5113936;28;20205;-67
2021/10/25 13:31:01;;;;;;;5.87;3.83;;;15.40;94.20;;;;;;5115170;28;20197;-67
2021/10/25 13:33:33;;;;;;;5.80;3.43;;;15.20;94.40;;;;;;5117060;27;20205;-67
2021/10/25 13:36:01;;;;;;;4.00;3.60;;;15.50;94.60;;;;;;5110760;28;20666;-67
2021/10/25 13:38:28;;;;;;;5.63;3.67;;;15.80;94.00;;;;;;5114702;28;20233;-67
2021/10/25 13:40:56;;;;;;;5.50;4.33;;;15.40;94.10;;;;;;5122686;27;20193;-67
2021/10/25 13:43:23;;;;;;;7.27;4.70;;;15.50;94.30;;;;;;5125631;27;20646;-67
2021/10/25 13:45:50;;;;;;;7.70;4.60;;;15.40;95.10;;;;;;5116103;27;20405;-67
2021/10/25 13:48:17;;;;;;;6.47;3.90;;;15.50;95.10;;;;;;5123146;27;20196;-67
2021/10/25 13:50:44;;;;;;;5.60;3.50;;;15.40;94.00;;;;;;5123708;27;20550;-67
2021/10/25 13:53:11;;;;;;;7.40;3.53;;;15.30;95.20;;;;;;5114412;28;20200;-67
2021/10/25 13:55:38;;;;;;;8.63;3.93;;;15.60;95.50;;;;;;5108159;27;20208;-67
2021/10/25 13:58:06;;;;;;;7.13;4.00;;;15.60;95.70;;;;;;5105527;27;20220;-67
2021/10/25 14:00:34;;;;;;;6.17;3.90;;;15.60;96.00;;;;;;5106794;27;20655;-67
2021/10/25 14:03:01;;;;;;;6.57;3.95;;;15.30;95.20;;;;;;5112146;27;20367;-67
2021/10/25 14:05:29;;;;;;;5.57;3.40;;;15.10;95.30;;;;;;5108016;27;20224;-68
2021/10/25 14:07:56;;;;;;;4.77;3.40;;;15.30;96.20;;;;;;5110576;27;20227;-67
2021/10/25 14:10:26;;;;;;;6.87;4.37;;;15.30;96.30;;;;;;5105937;27;20640;-67
2021/10/25 14:12:56;;;;;;;5.53;3.57;;;15.20;95.80;;;;;;5113309;27;20205;-68
2021/10/25 14:15:29;;;;;;;6.40;4.00;;;14.80;95.80;;;;;;5110486;27;20198;-67